This is the latest recevied weather packets stored in our database for station/object NO4D. If no packets are shown the sender has not sent any weather packets the latest 1 day(s).
| Time | Temp. | Humidity | Pressure | Rain* | Wind** | Luminosity | Snow |
|---|---|---|---|---|---|---|---|
| 1778076980 | 20.56° C | 77% | 1014.3 hPa | 0 mm | 1.34 m/s, 202° | 224 W/m² | - |
| 1778076679 | 20.56° C | 78% | 1014.5 hPa | 0 mm | 1.34 m/s, 188° | 222 W/m² | - |
| 1778076376 | 20° C | 77% | 1014.5 hPa | 0 mm | 4.92 m/s, 256° | 219 W/m² | - |
| 1778076073 | 20° C | 78% | 1014.7 hPa | 0 mm | 2.24 m/s, 242° | 209 W/m² | - |
| 1778075770 | 20° C | 77% | 1014.5 hPa | 0 mm | 1.34 m/s, 255° | 207 W/m² | - |
| 1778075466 | 20° C | 78% | 1014.5 hPa | 0 mm | 3.13 m/s, 238° | 183 W/m² | - |
| 1778075162 | 20° C | 78% | 1014.4 hPa | 0 mm | 1.34 m/s, 188° | 168 W/m² | - |
| 1778074858 | 20° C | 78% | 1014.3 hPa | 0 mm | 0.45 m/s, 203° | 158 W/m² | - |
| 1778074556 | 19.44° C | 79% | 1014.5 hPa | 0 mm | 1.79 m/s, 211° | 154 W/m² | - |
| 1778074253 | 20° C | 78% | 1014.7 hPa | 0 mm | 1.79 m/s, 196° | 136 W/m² | - |
| 1778073950 | 20° C | 78% | 1014.8 hPa | 0 mm | 1.34 m/s, 223° | 143 W/m² | - |
| 1778073647 | 19.44° C | 79% | 1014.7 hPa | 0 mm | 1.34 m/s, 237° | 155 W/m² | - |
| 1778073344 | 19.44° C | 79% | 1014.7 hPa | 0 mm | 2.24 m/s, 219° | 146 W/m² | - |
| 1778073040 | 19.44° C | 79% | 1014.5 hPa | 0 mm | 1.34 m/s, 205° | 156 W/m² | - |
| 1778072737 | 19.44° C | 79% | 1014.5 hPa | 0 mm | 1.79 m/s, 248° | 158 W/m² | - |
| 1778072435 | 19.44° C | 79% | 1014.5 hPa | 0 mm | 1.34 m/s, 208° | 150 W/m² | - |
| 1778072133 | 18.89° C | 79% | 1014.5 hPa | 0 mm | 1.34 m/s, 206° | 134 W/m² | - |
| 1778071831 | 19.44° C | 79% | 1014.5 hPa | 0 mm | 1.34 m/s, 203° | 108 W/m² | - |
| 1778071528 | 19.44° C | 80% | 1014.3 hPa | 0 mm | 0.89 m/s, 205° | 95 W/m² | - |
| 1778071226 | 19.44° C | 79% | 1014.3 hPa | 0 mm | 1.34 m/s, 195° | 118 W/m² | - |
| 1778070924 | 19.44° C | 79% | 1014.3 hPa | 0 mm | 0.89 m/s, 213° | 120 W/m² | - |
| 1778070621 | 18.89° C | 80% | 1014.3 hPa | 0 mm | 0 m/s | 121 W/m² | - |
| 1778070318 | 18.89° C | 80% | 1014.2 hPa | 0 mm | 1.34 m/s, 217° | 141 W/m² | - |
| 1778070016 | 18.89° C | 81% | 1014.3 hPa | 0 mm | 0.45 m/s, 177° | 126 W/m² | - |
| 1778069713 | 18.89° C | 81% | 1014.1 hPa | 0 mm | 0.45 m/s, 199° | 111 W/m² | - |
* Rain latest hour (hover to see other rain measurements)
** Current wind speed in m/s (hover to see current wind gust speed)